Henstridge Airfield


Codes: EGHS/
Name: Henstridge Airfield
City: Henstridge
Country: United Kingdom
Elevation: 184 ft.
Website:

Photos at Henstridge Airfield


   Photos courtesy of SpottingLog. You can add your own sightings and photos by signing up for a free trial today.



No photos found.

Weather at Henstridge Airfield


Time (UTC)DescriptionTempratureWindCloud coverageVisibilityPressureHumidity
13-Jun-2024 03:00Broken Clouds7°C4 mph, S54%10000m1018hPa91%
13-Jun-2024 06:00Broken Clouds9°C7 mph, S77%10000m1016hPa93%
13-Jun-2024 09:00Light Rain13°C13 mph, S100%10000m1014hPa83%
13-Jun-2024 12:00Light Rain13°C18 mph, S100%10000m1012hPa71%
13-Jun-2024 15:00Light Rain11°C18 mph, S100%10000m1009hPa87%
13-Jun-2024 18:00Light Rain11°C20 mph, S100%10000m1006hPa96%
13-Jun-2024 21:00Light Rain12°C18 mph, N100%0m1004hPa98%
14-Jun-2024 00:00Overcast Clouds11°C9 mph, SW89%10000m1004hPa97%
14-Jun-2024 03:00Overcast Clouds12°C9 mph, SW86%10000m1002hPa95%
14-Jun-2024 06:00Light Rain12°C11 mph, SW93%10000m1002hPa93%
14-Jun-2024 09:00Light Rain14°C13 mph, SW94%10000m1002hPa83%
14-Jun-2024 12:00Light Rain15°C18 mph, SW77%10000m1001hPa77%
14-Jun-2024 15:00Light Rain13°C13 mph, SW96%10000m1001hPa88%
14-Jun-2024 18:00Light Rain13°C13 mph, SW92%10000m999hPa90%
14-Jun-2024 21:00Light Rain8°C9 mph, SW100%10000m999hPa94%
15-Jun-2024 00:00Broken Clouds7°C7 mph, SW79%10000m999hPa96%
15-Jun-2024 03:00Clear Sky8°C11 mph, SW7%10000m1000hPa94%
15-Jun-2024 06:00Few Clouds10°C13 mph, SW21%10000m1000hPa93%
15-Jun-2024 09:00Light Rain14°C16 mph, SW76%10000m999hPa86%
15-Jun-2024 12:00Light Rain16°C16 mph, W77%10000m999hPa70%
15-Jun-2024 15:00Light Rain14°C18 mph, W48%10000m1000hPa80%
15-Jun-2024 18:00Light Rain12°C18 mph, SW69%10000m1001hPa89%
15-Jun-2024 21:00Light Rain10°C16 mph, SW77%10000m1002hPa91%
16-Jun-2024 00:00Broken Clouds11°C16 mph, SW80%10000m1002hPa84%
16-Jun-2024 03:00Few Clouds10°C13 mph, SW16%10000m1003hPa95%
16-Jun-2024 06:00Few Clouds11°C11 mph, SW14%10000m1004hPa93%
16-Jun-2024 09:00Light Rain14°C13 mph, SW84%10000m1005hPa82%
16-Jun-2024 12:00Light Rain16°C16 mph, SW91%10000m1006hPa79%
16-Jun-2024 15:00Light Rain16°C16 mph, SW98%10000m1006hPa83%
16-Jun-2024 18:00Light Rain15°C11 mph, SW99%10000m1006hPa82%
16-Jun-2024 21:00Broken Clouds11°C7 mph, SW67%10000m1008hPa96%
17-Jun-2024 00:00Broken Clouds10°C2 mph, SW83%10000m1008hPa93%
17-Jun-2024 03:00Overcast Clouds10°C2 mph, SW90%10000m1008hPa93%
17-Jun-2024 06:00Overcast Clouds13°C4 mph, S94%10000m1009hPa92%
17-Jun-2024 09:00Light Rain15°C9 mph, SW98%10000m1010hPa84%
17-Jun-2024 12:00Light Rain17°C11 mph, SW95%10000m1011hPa79%
17-Jun-2024 15:00Light Rain18°C9 mph, W60%8460m1011hPa79%
17-Jun-2024 18:00Light Rain16°C7 mph, W46%10000m1012hPa87%
17-Jun-2024 21:00Few Clouds11°C4 mph, NW24%10000m1014hPa91%
18-Jun-2024 00:00Few Clouds10°C4 mph, NW14%10000m1014hPa95%